Time;durP1;ratioP1;P1;durP2;ratioP2;P2;SDS_P1;SDS_P2;PMS_P1;PMS_P2;Temp;Humidity;BMP_temperature;BMP_pressure;BME280_temperature;BME280_humidity;BME280_pressure;Samples;Min_cycle;Max_cycle;Signal;HPM_P1;HPM_P2
2023/10/01 00:01:17;;;;;;;12.10;3.45;;;17.10;99.90;;;;;;5070393;28;20032;-39
2023/10/01 00:03:44;;;;;;;6.93;3.50;;;17.10;99.90;;;;;;5075621;28;20161;-38
2023/10/01 00:06:10;;;;;;;10.77;3.75;;;17.10;99.90;;;;;;5075785;28;20152;-41
2023/10/01 00:08:35;;;;;;;7.90;2.75;;;17.00;99.90;;;;;;5075977;28;20466;-40
2023/10/01 00:11:02;;;;;;;6.18;2.90;;;17.00;99.90;;;;;;5075065;28;20101;-43
2023/10/01 00:13:28;;;;;;;7.87;3.63;;;17.00;99.90;;;;;;5071783;28;20420;-39
2023/10/01 00:15:55;;;;;;;5.70;2.78;;;17.00;99.90;;;;;;5074686;28;20336;-43
2023/10/01 00:18:21;;;;;;;9.95;3.42;;;16.90;99.90;;;;;;5073250;28;20409;-40
2023/10/01 00:20:46;;;;;;;12.68;3.60;;;16.90;99.90;;;;;;5055573;28;20036;-39
2023/10/01 00:23:12;;;;;;;8.90;3.95;;;16.90;99.90;;;;;;5070118;28;20036;-43
2023/10/01 00:25:38;;;;;;;6.38;3.08;;;16.90;99.90;;;;;;5072759;28;20366;-44
2023/10/01 00:28:06;;;;;;;6.43;3.38;;;16.90;99.90;;;;;;5074524;28;20029;-41
2023/10/01 00:30:32;;;;;;;10.88;3.20;;;17.00;99.90;;;;;;5075213;28;20025;-40
2023/10/01 00:32:58;;;;;;;10.68;2.75;;;17.00;99.90;;;;;;5073981;28;20029;-39
2023/10/01 00:35:27;;;;;;;9.48;3.58;;;17.00;99.90;;;;;;5071993;28;20028;-45
2023/10/01 00:37:53;;;;;;;7.45;2.97;;;17.00;99.90;;;;;;5067032;28;20028;-39
2023/10/01 00:40:19;;;;;;;8.75;3.65;;;16.90;99.90;;;;;;5074221;28;20020;-41
2023/10/01 00:42:45;;;;;;;12.38;3.35;;;17.00;99.90;;;;;;5075166;28;20031;-41
2023/10/01 00:45:13;;;;;;;11.37;3.07;;;16.90;99.90;;;;;;5075230;28;20028;-39
2023/10/01 00:47:40;;;;;;;;;;;16.90;99.90;;;;;;5075497;28;20017;-38
2023/10/01 00:50:11;;;;;;;7.63;2.72;;;16.90;99.90;;;;;;5073666;28;20428;-38
2023/10/01 00:52:38;;;;;;;9.93;3.22;;;16.90;99.90;;;;;;5068547;28;20500;-42
2023/10/01 00:55:05;;;;;;;8.38;3.08;;;16.90;99.90;;;;;;5054881;28;20027;-38
2023/10/01 00:57:30;;;;;;;7.43;2.67;;;16.90;99.90;;;;;;5054863;28;20021;-38
2023/10/01 00:59:56;;;;;;;9.90;2.90;;;16.90;99.90;;;;;;5055047;28;20021;-38
2023/10/01 01:02:22;;;;;;;10.82;2.90;;;16.90;99.90;;;;;;5054571;28;20021;-42
2023/10/01 01:05:05;;;;;;;7.38;2.47;;;16.90;99.90;;;;;;5054221;28;20557;-40
2023/10/01 01:07:32;;;;;;;10.07;4.00;;;16.90;99.90;;;;;;5062358;28;20064;-39
2023/10/01 01:10:01;;;;;;;8.30;3.08;;;17.00;99.90;;;;;;5064927;28;20033;-39
2023/10/01 01:12:27;;;;;;;9.32;2.88;;;17.00;99.90;;;;;;5062623;28;20105;-40
2023/10/01 01:14:54;;;;;;;10.40;2.80;;;17.00;99.90;;;;;;5074816;28;20047;-41
2023/10/01 01:17:21;;;;;;;;;;;17.00;99.90;;;;;;5074899;28;20025;-38
2023/10/01 01:19:52;;;;;;;7.20;3.63;;;17.00;99.90;;;;;;5074470;28;19954;-38
2023/10/01 01:22:28;;;;;;;3.75;1.98;;;17.00;99.90;;;;;;5072179;28;20463;-39
2023/10/01 01:24:57;;;;;;;9.52;2.55;;;17.00;99.90;;;;;;5074553;28;20388;-41
2023/10/01 01:27:23;;;;;;;5.95;2.25;;;17.00;99.90;;;;;;5062791;28;20025;-39
2023/10/01 01:29:50;;;;;;;9.55;3.13;;;17.00;99.90;;;;;;5057626;28;20029;-38
2023/10/01 01:32:16;;;;;;;8.98;2.58;;;17.00;99.90;;;;;;5074268;28;20107;-41
2023/10/01 01:34:46;;;;;;;11.30;2.80;;;17.10;99.90;;;;;;5074301;28;20100;-41
2023/10/01 01:37:30;;;;;;;8.80;2.72;;;17.10;99.90;;;;;;5073192;28;20054;-41
2023/10/01 01:39:57;;;;;;;15.10;3.75;;;17.10;99.90;;;;;;5073986;28;20036;-40
2023/10/01 01:42:24;;;;;;;5.97;2.80;;;17.00;99.90;;;;;;5072979;28;20531;-40
2023/10/01 01:45:15;;;;;;;;;;;17.00;99.90;;;;;;5059425;28;20029;-41
2023/10/01 01:47:39;;;;;;;8.20;2.58;;;17.00;99.90;;;;;;5066486;28;19908;-40
2023/10/01 01:50:21;;;;;;;12.80;3.00;;;17.00;99.90;;;;;;5073055;28;20465;-42
2023/10/01 01:52:51;;;;;;;8.00;2.65;;;17.00;99.90;;;;;;5073079;28;20105;-41
2023/10/01 01:55:26;;;;;;;6.15;2.55;;;17.00;99.90;;;;;;5073957;28;20063;-40
2023/10/01 01:58:08;;;;;;;9.00;3.22;;;16.90;99.90;;;;;;5073953;28;20407;-43
2023/10/01 02:00:37;;;;;;;10.40;2.60;;;16.90;99.90;;;;;;5069103;28;20025;-39
2023/10/01 02:03:10;;;;;;;11.98;3.13;;;16.90;99.90;;;;;;5063731;28;20112;-41
2023/10/01 02:05:47;;;;;;;7.72;2.33;;;16.90;99.90;;;;;;5073511;28;20397;-39
2023/10/01 02:08:34;;;;;;;6.47;2.80;;;16.90;99.90;;;;;;5073379;28;20093;-40
2023/10/01 02:11:04;;;;;;;16.20;4.60;;;16.90;99.90;;;;;;5073399;28;20463;-38
2023/10/01 02:13:30;;;;;;;9.57;3.40;;;16.80;99.90;;;;;;5073309;28;20099;-42
2023/10/01 02:16:18;;;;;;;7.32;3.50;;;16.80;99.90;;;;;;5073331;28;20485;-39
2023/10/01 02:18:42;;;;;;;10.70;3.05;;;16.80;99.90;;;;;;5059230;28;20501;-40
2023/10/01 02:21:16;;;;;;;9.25;3.40;;;16.80;99.90;;;;;;5055350;28;20029;-40
2023/10/01 02:23:42;;;;;;;6.88;2.78;;;16.80;99.90;;;;;;5072527;28;20492;-41
2023/10/01 02:26:08;;;;;;;9.02;3.58;;;16.80;99.90;;;;;;5073042;28;20021;-39
2023/10/01 02:28:36;;;;;;;8.85;3.17;;;16.80;99.90;;;;;;5073403;28;20020;-39
2023/10/01 02:31:03;;;;;;;13.00;3.05;;;16.80;99.90;;;;;;5073016;28;20458;-41
2023/10/01 02:33:55;;;;;;;;;;;16.70;99.90;;;;;;5072201;28;20009;-38
2023/10/01 02:36:22;;;;;;;10.40;3.28;;;16.70;99.90;;;;;;5055503;28;19904;-41
2023/10/01 02:38:53;;;;;;;7.85;3.38;;;16.70;99.90;;;;;;5053069;28;20481;-41
2023/10/01 02:41:25;;;;;;;8.50;3.55;;;16.70;99.90;;;;;;5053000;28;20017;-41
2023/10/01 02:43:55;;;;;;;12.40;3.60;;;16.70;99.90;;;;;;5052853;28;20025;-42
2023/10/01 02:46:27;;;;;;;15.70;3.53;;;16.70;99.90;;;;;;5052963;28;20028;-38
2023/10/01 02:48:59;;;;;;;7.90;3.30;;;16.70;99.90;;;;;;5053151;28;20021;-38
2023/10/01 02:51:38;;;;;;;10.70;2.80;;;16.70;99.90;;;;;;5054045;28;20021;-43
2023/10/01 02:54:05;;;;;;;10.75;3.78;;;16.70;99.90;;;;;;5072875;28;20422;-40
2023/10/01 02:56:37;;;;;;;10.57;3.30;;;16.70;99.90;;;;;;5072871;28;20067;-41
2023/10/01 02:59:13;;;;;;;11.07;3.45;;;16.70;99.90;;;;;;5071763;28;20093;-39
2023/10/01 03:04:27;;;;;;;9.68;3.00;;;16.70;99.90;;;;;;5052759;28;20405;-38
2023/10/01 03:06:55;;;;;;;9.88;3.28;;;16.60;99.90;;;;;;5053982;28;20108;-41
2023/10/01 03:09:33;;;;;;;;;;;16.60;99.90;;;;;;5061776;28;20033;-38
2023/10/01 03:15:00;;;;;;;14.20;3.58;;;16.60;99.90;;;;;;5052882;28;20080;-40
2023/10/01 03:17:39;;;;;;;9.75;3.60;;;16.50;99.90;;;;;;5051359;28;20048;-39
2023/10/01 03:21:07;;;;;;;12.95;3.72;;;16.50;99.90;;;;;;5052609;28;20504;-38
2023/10/01 03:23:11;;;;;;;11.38;4.38;;;16.50;99.90;;;;;;5062277;28;20035;-41
2023/10/01 03:25:41;;;;;;;7.80;3.22;;;16.50;99.90;;;;;;5067211;28;20593;-39
2023/10/01 03:28:14;;;;;;;18.05;3.47;;;16.50;99.90;;;;;;5052515;28;20492;-40
2023/10/01 03:30:45;;;;;;;16.45;3.38;;;16.50;99.90;;;;;;5055167;28;20499;-40
2023/10/01 03:33:15;;;;;;;9.07;3.72;;;16.50;99.90;;;;;;5073480;28;20358;-39
2023/10/01 03:35:47;;;;;;;9.45;3.53;;;16.50;99.90;;;;;;5076412;28;20016;-41
2023/10/01 03:38:14;;;;;;;11.32;3.53;;;16.50;99.90;;;;;;5075299;28;20074;-38
2023/10/01 03:41:06;;;;;;;9.53;4.03;;;16.50;99.90;;;;;;5076466;28;20020;-39
2023/10/01 03:43:37;;;;;;;8.15;2.97;;;16.50;99.90;;;;;;5062093;28;20489;-39
2023/10/01 03:48:58;;;;;;;17.38;4.00;;;16.50;99.90;;;;;;5064561;28;20036;-41
2023/10/01 03:51:29;;;;;;;17.10;3.80;;;16.40;99.90;;;;;;5076091;28;20043;-40
2023/10/01 03:54:06;;;;;;;13.15;4.68;;;16.40;99.90;;;;;;5071934;28;20020;-38
2023/10/01 03:56:33;;;;;;;10.13;3.17;;;16.40;99.90;;;;;;5074155;28;20027;-38
2023/10/01 03:58:59;;;;;;;8.32;3.53;;;16.40;99.90;;;;;;5075718;28;20017;-38
2023/10/01 04:01:26;;;;;;;11.85;3.60;;;16.40;99.90;;;;;;5056251;28;20127;-40
2023/10/01 04:03:52;;;;;;;9.48;3.28;;;16.40;99.90;;;;;;5072821;28;20030;-41
2023/10/01 04:06:21;;;;;;;10.93;3.08;;;16.40;99.90;;;;;;5076077;28;20103;-39
2023/10/01 04:08:48;;;;;;;10.80;3.92;;;16.50;99.90;;;;;;5073575;28;20020;-43
2023/10/01 04:11:15;;;;;;;8.80;4.13;;;16.50;99.90;;;;;;5075477;28;20445;-40
2023/10/01 04:13:41;;;;;;;9.50;3.25;;;16.50;99.90;;;;;;5075667;28;20050;-38
2023/10/01 04:16:15;;;;;;;7.65;3.20;;;16.50;99.90;;;;;;5074660;28;20021;-39
2023/10/01 04:18:42;;;;;;;6.85;3.22;;;16.50;99.90;;;;;;5055906;28;20108;-42
2023/10/01 04:23:40;;;;;;;12.27;3.60;;;16.50;99.90;;;;;;5060075;28;20094;-41
2023/10/01 04:26:07;;;;;;;8.88;3.03;;;16.50;99.90;;;;;;5075664;28;20021;-40
2023/10/01 04:28:37;;;;;;;10.00;3.28;;;16.50;99.90;;;;;;5075348;28;20017;-38
2023/10/01 04:31:09;;;;;;;11.63;4.28;;;16.50;99.90;;;;;;5075354;28;20025;-45
2023/10/01 04:33:35;;;;;;;7.97;2.92;;;16.50;99.90;;;;;;5070536;28;20017;-40
2023/10/01 04:36:04;;;;;;;8.80;3.80;;;16.50;99.90;;;;;;5055291;28;20052;-42
2023/10/01 04:38:32;;;;;;;12.73;3.65;;;16.50;99.90;;;;;;5058202;28;20030;-40
2023/10/01 04:41:03;;;;;;;6.90;2.90;;;16.50;99.90;;;;;;5075010;28;20032;-40
2023/10/01 04:43:35;;;;;;;12.90;3.75;;;16.50;99.90;;;;;;5075454;28;20026;-38
2023/10/01 04:46:08;;;;;;;15.13;3.47;;;16.50;99.90;;;;;;5073956;28;20063;-39
2023/10/01 04:48:36;;;;;;;7.57;2.97;;;16.40;99.90;;;;;;5073840;28;20036;-40
2023/10/01 04:51:03;;;;;;;;;;;16.40;99.90;;;;;;5066692;28;20024;-39
2023/10/01 04:53:29;;;;;;;8.67;3.47;;;16.40;99.90;;;;;;5055016;28;19904;-37
2023/10/01 04:56:01;;;;;;;7.50;3.50;;;16.50;99.90;;;;;;5075208;28;20025;-38
2023/10/01 04:58:29;;;;;;;9.93;3.47;;;16.50;99.90;;;;;;5072927;28;20499;-38
2023/10/01 05:00:55;;;;;;;7.10;3.47;;;16.40;99.90;;;;;;5074798;28;20112;-43
2023/10/01 05:03:40;;;;;;;11.45;4.00;;;16.40;99.90;;;;;;5062139;28;20430;-39
2023/10/01 05:06:11;;;;;;;9.55;3.58;;;16.40;99.90;;;;;;5054993;28;20473;-40
2023/10/01 05:08:40;;;;;;;6.68;3.28;;;16.40;99.90;;;;;;5067324;28;20024;-39
2023/10/01 05:11:16;;;;;;;5.72;3.08;;;16.50;99.90;;;;;;5073322;28;20049;-39
2023/10/01 05:13:43;;;;;;;11.50;3.47;;;16.40;99.90;;;;;;5074585;28;20063;-39
2023/10/01 05:16:14;;;;;;;8.73;3.95;;;16.40;99.90;;;;;;5074836;28;20023;-39
2023/10/01 05:18:45;;;;;;;11.60;3.53;;;16.30;99.90;;;;;;5074528;28;20024;-39
2023/10/01 05:21:14;;;;;;;8.20;3.75;;;16.40;99.90;;;;;;5074468;28;20243;-38
2023/10/01 05:23:41;;;;;;;12.68;3.60;;;16.30;99.90;;;;;;5074303;28;20031;-38
2023/10/01 05:26:08;;;;;;;5.45;3.42;;;16.40;99.90;;;;;;5072536;28;20028;-39
2023/10/01 05:28:40;;;;;;;13.93;3.73;;;16.40;99.90;;;;;;5074564;28;20519;-37
2023/10/01 05:31:14;;;;;;;10.80;3.83;;;16.30;99.90;;;;;;5074495;28;20481;-39
2023/10/01 05:33:46;;;;;;;8.43;3.35;;;16.30;99.90;;;;;;5073442;28;20012;-38
2023/10/01 05:36:16;;;;;;;9.70;3.88;;;16.30;99.90;;;;;;5074095;28;20523;-38
2023/10/01 05:38:43;;;;;;;9.48;3.88;;;16.30;99.90;;;;;;5074057;28;20107;-44
2023/10/01 05:41:09;;;;;;;12.95;3.63;;;16.30;99.90;;;;;;5070956;28;20039;-41
2023/10/01 05:43:37;;;;;;;10.00;3.67;;;16.30;99.90;;;;;;5053913;28;20046;-38
2023/10/01 05:46:08;;;;;;;;;;;16.40;99.90;;;;;;5054347;28;20424;-40
2023/10/01 05:48:39;;;;;;;9.00;3.47;;;16.40;99.90;;;;;;5053963;28;20321;-38
2023/10/01 05:51:30;;;;;;;13.65;4.75;;;16.40;99.90;;;;;;5053730;28;20071;-40
2023/10/01 05:53:56;;;;;;;11.25;3.42;;;16.30;99.90;;;;;;5054083;28;20021;-43
2023/10/01 05:56:24;;;;;;;10.70;4.07;;;16.40;99.90;;;;;;5069140;28;20038;-40
2023/10/01 05:58:50;;;;;;;11.75;3.65;;;16.40;99.90;;;;;;5067065;28;20014;-41
2023/10/01 06:01:17;;;;;;;10.10;3.55;;;16.40;99.90;;;;;;5053652;28;20079;-38
2023/10/01 06:03:48;;;;;;;9.25;3.13;;;16.40;99.90;;;;;;5069326;28;20020;-39
2023/10/01 06:06:23;;;;;;;12.85;3.70;;;16.40;99.90;;;;;;5072545;28;20512;-39
2023/10/01 06:08:59;;;;;;;9.38;3.50;;;16.40;99.90;;;;;;5073501;28;20477;-41
2023/10/01 06:11:38;;;;;;;9.80;4.45;;;16.40;99.90;;;;;;5072149;28;20048;-40
2023/10/01 06:17:00;;;;;;;11.20;4.03;;;16.30;99.90;;;;;;5057544;28;20060;-40
2023/10/01 06:19:27;;;;;;;16.30;4.18;;;16.30;99.90;;;;;;5053632;28;20025;-39
2023/10/01 06:21:53;;;;;;;11.10;3.57;;;16.30;99.90;;;;;;5053312;28;20370;-41
2023/10/01 06:24:21;;;;;;;12.05;4.20;;;16.30;99.90;;;;;;5053031;28;20029;-38
2023/10/01 06:26:47;;;;;;;13.40;4.72;;;16.30;99.90;;;;;;5067560;28;20036;-38
2023/10/01 06:29:13;;;;;;;13.38;4.50;;;16.30;99.90;;;;;;5073138;28;20432;-39
2023/10/01 06:32:00;;;;;;;8.70;4.13;;;16.20;99.90;;;;;;5072941;28;20086;-38
2023/10/01 06:34:31;;;;;;;13.10;4.93;;;16.20;99.90;;;;;;5071736;28;20362;-41
2023/10/01 06:36:59;;;;;;;12.57;3.85;;;16.20;99.90;;;;;;5073481;28;20020;-39
2023/10/01 06:39:30;;;;;;;8.10;3.58;;;16.30;99.90;;;;;;5073117;28;20046;-41
2023/10/01 06:44:41;;;;;;;11.05;3.80;;;16.30;99.90;;;;;;5073520;28;20549;-39
2023/10/01 06:47:14;;;;;;;12.70;4.22;;;16.40;99.90;;;;;;5071635;28;20477;-38
2023/10/01 06:49:57;;;;;;;14.38;4.25;;;16.50;99.90;;;;;;5066227;28;20108;-43
2023/10/01 06:52:32;;;;;;;13.15;3.85;;;16.50;99.90;;;;;;5056337;28;20035;-40
2023/10/01 06:55:01;;;;;;;7.97;3.78;;;16.50;99.90;;;;;;5072872;28;20595;-40
2023/10/01 06:57:33;;;;;;;11.70;4.25;;;16.50;99.90;;;;;;5072487;28;20461;-42
2023/10/01 06:59:59;;;;;;;9.02;3.47;;;16.50;99.90;;;;;;5071891;28;20040;-40
2023/10/01 07:02:27;;;;;;;14.18;3.88;;;16.60;99.90;;;;;;5072785;28;20024;-39
2023/10/01 07:04:58;;;;;;;9.05;3.90;;;16.60;99.90;;;;;;5071432;28;20433;-38
2023/10/01 07:07:24;;;;;;;13.20;5.10;;;16.60;99.90;;;;;;5061053;28;20482;-40
2023/10/01 07:09:53;;;;;;;10.57;4.78;;;16.70;99.90;;;;;;5071422;28;20021;-53
2023/10/01 07:12:20;;;;;;;10.38;4.53;;;16.80;99.90;;;;;;5073418;28;20467;-54
2023/10/01 07:14:50;;;;;;;15.50;5.22;;;16.80;99.90;;;;;;5072469;28;20109;-53
2023/10/01 07:17:19;;;;;;;13.00;4.93;;;16.80;99.90;;;;;;5072918;28;20354;-51
2023/10/01 07:19:59;;;;;;;14.23;4.22;;;16.90;99.90;;;;;;5072526;28;20082;-52
2023/10/01 07:22:31;;;;;;;10.43;4.55;;;16.90;99.90;;;;;;5072533;28;20054;-52
2023/10/01 07:24:59;;;;;;;9.32;3.63;;;17.00;99.90;;;;;;5071114;28;20021;-51
2023/10/01 07:27:26;;;;;;;14.85;4.72;;;17.10;99.90;;;;;;5072225;28;20028;-52
2023/10/01 07:29:54;;;;;;;10.17;3.77;;;17.10;99.90;;;;;;5072413;28;20111;-40
2023/10/01 07:32:23;;;;;;;12.30;5.10;;;17.10;99.90;;;;;;5070870;28;20021;-43
2023/10/01 07:34:55;;;;;;;9.25;4.45;;;17.10;99.90;;;;;;5072674;28;20021;-40
2023/10/01 07:37:31;;;;;;;12.77;4.03;;;17.20;99.90;;;;;;5072405;28;20392;-37
2023/10/01 07:40:08;;;;;;;13.65;4.68;;;17.20;99.90;;;;;;5071184;28;20031;-39
2023/10/01 07:42:46;;;;;;;11.40;4.43;;;17.30;99.90;;;;;;5067841;28;20120;-40
2023/10/01 07:45:16;;;;;;;12.23;3.85;;;17.30;99.90;;;;;;5052621;28;20367;-39
2023/10/01 07:47:45;;;;;;;14.27;4.88;;;17.40;99.90;;;;;;5064057;28;20078;-39
2023/10/01 07:50:16;;;;;;;13.82;5.07;;;17.40;99.90;;;;;;5071440;28;20381;-40
2023/10/01 07:52:44;;;;;;;10.00;4.15;;;17.50;99.90;;;;;;5070311;28;20032;-38
2023/10/01 08:00:41;;;;;;;10.35;4.22;;;17.70;99.90;;;;;;5068493;28;20039;-40
2023/10/01 08:03:55;;;;;;;8.38;4.55;;;17.70;99.90;;;;;;5070153;28;20060;-40
2023/10/01 08:06:16;;;;;;;18.55;3.92;;;17.80;99.90;;;;;;5068940;28;20431;-42
2023/10/01 08:08:47;;;;;;;11.10;4.90;;;17.90;99.90;;;;;;5072131;28;20086;-39
2023/10/01 08:13:58;;;;;;;14.05;4.90;;;18.10;99.90;;;;;;5071733;28;20063;-40
2023/10/01 08:16:24;;;;;;;14.57;5.13;;;18.10;99.90;;;;;;5052430;28;20056;-43
2023/10/01 08:18:57;;;;;;;13.93;4.90;;;18.20;99.90;;;;;;5074151;28;20500;-39
2023/10/01 08:21:36;;;;;;;18.73;5.20;;;18.30;99.90;;;;;;5075434;28;20074;-40
2023/10/01 08:24:09;;;;;;;12.85;5.22;;;18.30;99.90;;;;;;5075198;28;20115;-42
2023/10/01 08:26:49;;;;;;;10.02;4.72;;;18.40;99.90;;;;;;5055516;28;20048;-41
2023/10/01 08:29:15;;;;;;;16.98;5.63;;;18.50;99.90;;;;;;5055404;28;20028;-40
2023/10/01 08:34:23;;;;;;;9.60;4.55;;;18.60;99.90;;;;;;5061307;28;20086;-39
2023/10/01 08:36:57;;;;;;;13.32;4.97;;;18.70;99.90;;;;;;5055288;28;20021;-40
2023/10/01 08:42:08;;;;;;;10.52;4.55;;;18.80;99.90;;;;;;5063853;28;20032;-39
2023/10/01 08:44:46;;;;;;;13.80;5.38;;;18.90;99.90;;;;;;5075202;28;20430;-39
2023/10/01 08:47:31;;;;;;;16.25;4.95;;;18.90;99.90;;;;;;5075442;28;20508;-39
2023/10/01 08:52:52;;;;;;;14.15;4.80;;;19.00;99.90;;;;;;5075200;28;20032;-40
2023/10/01 08:58:48;;;;;;;15.23;5.20;;;19.10;99.90;;;;;;5074214;28;20035;-40
2023/10/01 09:01:12;;;;;;;12.35;5.20;;;19.10;99.90;;;;;;5074619;28;20041;-39
2023/10/01 09:03:39;;;;;;;12.88;5.78;;;19.30;99.90;;;;;;5074758;28;20033;-39
2023/10/01 09:06:24;;;;;;;11.18;4.82;;;19.40;99.90;;;;;;5065768;28;20028;-39
2023/10/01 09:08:54;;;;;;;10.63;4.43;;;19.50;99.90;;;;;;5054717;28;20063;-39
2023/10/01 09:11:35;;;;;;;17.15;5.93;;;19.80;99.90;;;;;;5054106;28;20044;-40
2023/10/01 09:14:15;;;;;;;16.33;5.75;;;19.90;99.90;;;;;;5055527;28;20544;-41
2023/10/01 09:16:45;;;;;;;15.25;4.85;;;19.90;99.90;;;;;;5073530;28;20024;-39
2023/10/01 09:19:30;;;;;;;14.10;5.20;;;20.00;99.90;;;;;;5091947;28;20170;-40
2023/10/01 09:22:09;;;;;;;14.02;5.40;;;20.00;99.90;;;;;;5094726;28;20472;-40
2023/10/01 09:24:38;;;;;;;14.68;4.90;;;20.00;99.90;;;;;;5054252;28;20083;-39
2023/10/01 09:27:21;;;;;;;10.30;4.72;;;20.20;99.90;;;;;;5054190;28;20029;-40
2023/10/01 09:32:54;;;;;;;12.80;5.13;;;20.30;99.90;;;;;;5053812;28;20052;-42
2023/10/01 09:35:30;;;;;;;14.25;5.47;;;20.50;99.90;;;;;;5053916;28;20028;-41
2023/10/01 09:38:27;;;;;;;12.73;5.23;;;20.60;99.90;;;;;;5054103;28;20017;-39
2023/10/01 09:40:54;;;;;;;11.25;4.30;;;20.80;99.90;;;;;;5067635;28;20369;-40
2023/10/01 09:43:30;;;;;;;17.20;5.30;;;20.90;99.90;;;;;;5074153;28;20074;-54
2023/10/01 09:45:58;;;;;;;11.15;4.53;;;21.10;99.90;;;;;;5073268;28;20035;-53
2023/10/01 09:48:33;;;;;;;9.18;4.65;;;21.10;99.90;;;;;;5071048;28;20028;-49
2023/10/01 09:51:08;;;;;;;16.85;5.10;;;21.20;99.90;;;;;;5061400;28;20436;-52
2023/10/01 09:54:02;;;;;;;9.93;4.28;;;21.20;99.90;;;;;;5071757;28;20519;-53
2023/10/01 09:56:29;;;;;;;14.57;5.45;;;21.30;99.90;;;;;;5058266;28;20029;-54
2023/10/01 09:59:01;;;;;;;11.95;4.68;;;21.30;99.90;;;;;;5072133;28;20016;-53
2023/10/01 10:01:28;;;;;;;15.88;5.32;;;21.40;99.90;;;;;;5062980;28;20083;-53
2023/10/01 10:04:20;;;;;;;14.65;4.72;;;21.40;99.90;;;;;;5069404;28;20012;-53
2023/10/01 10:06:59;;;;;;;11.48;4.45;;;21.50;99.90;;;;;;5066118;28;20508;-52
2023/10/01 10:09:26;;;;;;;12.02;4.43;;;21.50;99.90;;;;;;5053453;28;20036;-53
2023/10/01 10:11:53;;;;;;;18.98;5.05;;;21.60;99.90;;;;;;5053333;28;20468;-54
2023/10/01 10:14:25;;;;;;;18.33;5.30;;;21.60;99.90;;;;;;5054217;28;20013;-52
2023/10/01 10:16:59;;;;;;;16.70;4.90;;;21.70;99.90;;;;;;5053333;28;20033;-54
2023/10/01 10:19:31;;;;;;;16.23;4.80;;;21.70;99.90;;;;;;5053189;28;20021;-51
2023/10/01 10:24:35;;;;;;;15.57;4.95;;;21.80;99.90;;;;;;5064680;28;20025;-56
2023/10/01 10:27:09;;;;;;;15.18;5.28;;;21.90;99.90;;;;;;5073195;28;20032;-54
2023/10/01 10:29:46;;;;;;;13.50;5.03;;;22.00;99.90;;;;;;5073408;28;20043;-51
2023/10/01 10:32:13;;;;;;;14.90;5.45;;;22.00;99.90;;;;;;5072286;28;20025;-53
2023/10/01 10:35:03;;;;;;;12.05;4.88;;;22.00;99.90;;;;;;5073007;28;20036;-51
2023/10/01 10:37:35;;;;;;;15.57;5.40;;;22.10;99.90;;;;;;5071662;28;20503;-53
2023/10/01 10:40:22;;;;;;;13.55;5.68;;;22.20;99.90;;;;;;5073127;28;20493;-51
2023/10/01 10:42:57;;;;;;;;;;;22.30;99.90;;;;;;5052419;28;20017;-54
2023/10/01 10:45:26;;;;;;;14.30;5.43;;;22.40;99.90;;;;;;5053244;28;19904;-53
2023/10/01 10:47:59;;;;;;;18.80;6.30;;;22.40;99.90;;;;;;5060123;28;20073;-52
2023/10/01 10:50:50;;;;;;;16.60;6.22;;;22.50;99.90;;;;;;5070043;28;20388;-51
2023/10/01 10:53:24;;;;;;;19.67;5.88;;;22.60;99.90;;;;;;5069770;28;20025;-51
2023/10/01 10:55:54;;;;;;;18.67;5.38;;;22.60;99.90;;;;;;5072816;28;20387;-51
2023/10/01 10:58:31;;;;;;;11.00;5.10;;;22.60;99.90;;;;;;5067669;28;20083;-52
2023/10/01 11:01:15;;;;;;;;;;;22.60;99.90;;;;;;5073230;28;20032;-54
2023/10/01 11:03:51;;;;;;;15.43;5.28;;;22.70;99.90;;;;;;5072934;28;20411;-52
2023/10/01 11:06:39;;;;;;;21.38;6.85;;;22.70;99.90;;;;;;5071983;28;20099;-53
2023/10/01 11:09:26;;;;;;;16.17;6.72;;;22.80;99.90;;;;;;5070036;28;20025;-53
2023/10/01 11:11:58;;;;;;;16.17;6.50;;;22.90;99.90;;;;;;5069828;28;20054;-52
2023/10/01 11:14:25;;;;;;;13.93;6.18;;;23.00;99.90;;;;;;5061459;28;20055;-53
2023/10/01 11:16:51;;;;;;;18.88;6.05;;;23.10;99.90;;;;;;5072896;28;20059;-54
2023/10/01 11:19:25;;;;;;;16.20;5.97;;;23.10;99.90;;;;;;5069633;28;20052;-54
2023/10/01 11:22:00;;;;;;;14.45;6.55;;;23.20;99.90;;;;;;5068564;28;20060;-48
2023/10/01 11:24:39;;;;;;;23.17;6.82;;;23.20;99.90;;;;;;5061686;28;20043;-53
2023/10/01 11:27:17;;;;;;;13.10;5.82;;;23.30;99.90;;;;;;5065501;28;20111;-53
2023/10/01 11:29:54;;;;;;;16.92;6.10;;;23.40;99.90;;;;;;5066411;28;20040;-53
2023/10/01 11:32:19;;;;;;;;;;;23.50;99.90;;;;;;5069509;28;20478;-53
2023/10/01 11:34:46;;;;;;;12.77;5.35;;;23.60;99.90;;;;;;5063777;28;19999;-53
2023/10/01 11:37:18;;;;;;;13.63;6.40;;;23.70;99.90;;;;;;5072359;28;20044;-52
2023/10/01 11:39:52;;;;;;;17.83;6.93;;;23.70;99.90;;;;;;5068526;28;20508;-55
2023/10/01 11:42:35;;;;;;;15.45;6.18;;;23.80;99.90;;;;;;5058351;28;20470;-52
2023/10/01 11:45:28;;;;;;;17.95;5.90;;;23.80;99.90;;;;;;5061479;28;20052;-53
2023/10/01 11:48:19;;;;;;;17.95;6.07;;;23.90;99.90;;;;;;5052414;28;20506;-53
2023/10/01 11:50:51;;;;;;;17.15;6.13;;;23.90;99.90;;;;;;5060442;28;20025;-53
2023/10/01 11:53:28;;;;;;;13.82;5.50;;;24.00;99.90;;;;;;5057412;28;20029;-53
2023/10/01 11:56:01;;;;;;;;;;;24.00;99.90;;;;;;5056982;28;20040;-53
2023/10/01 11:58:28;;;;;;;14.98;6.30;;;24.10;99.90;;;;;;5056176;28;19904;-53
2023/10/01 12:00:59;;;;;;;;;;;24.10;99.90;;;;;;5061979;28;20048;-51
2023/10/01 12:03:27;;;;;;;22.45;7.10;;;24.20;99.90;;;;;;5075668;28;19908;-53
2023/10/01 12:05:56;;;;;;;14.30;6.53;;;24.40;99.90;;;;;;5074360;28;20024;-51
2023/10/01 12:08:35;;;;;;;16.20;5.60;;;24.40;99.90;;;;;;5075700;28;20020;-53
2023/10/01 12:12:02;;;;;;;15.02;6.20;;;24.40;99.90;;;;;;5075143;28;20032;-53
2023/10/01 12:14:05;;;;;;;14.35;5.80;;;24.50;99.90;;;;;;5073217;28;20097;-53
2023/10/01 12:16:33;;;;;;;16.23;5.53;;;24.70;99.90;;;;;;5055886;28;20017;-53
2023/10/01 12:19:22;;;;;;;13.60;5.75;;;24.80;99.90;;;;;;5075071;28;20103;-52
2023/10/01 12:21:45;;;;;;;11.73;5.03;;;24.80;99.90;;;;;;5075155;28;20033;-51
2023/10/01 12:24:15;;;;;;;16.27;5.60;;;24.90;99.90;;;;;;5074013;28;20039;-50
2023/10/01 12:26:43;;;;;;;18.88;5.47;;;24.90;99.90;;;;;;5075365;28;20059;-51
2023/10/01 12:29:12;;;;;;;20.30;6.28;;;25.00;99.90;;;;;;5073935;28;20031;-54
2023/10/01 12:31:45;;;;;;;12.88;4.72;;;25.20;99.90;;;;;;5064447;28;20492;-51
2023/10/01 12:34:11;;;;;;;19.52;6.70;;;25.40;99.90;;;;;;5075294;28;20059;-51
2023/10/01 12:36:46;;;;;;;14.38;4.85;;;25.20;99.90;;;;;;5075571;28;20461;-43
2023/10/01 12:41:56;;;;;;;13.60;4.53;;;24.90;99.90;;;;;;5060268;28;20036;-52
2023/10/01 12:44:34;;;;;;;11.65;4.32;;;24.80;99.90;;;;;;5055060;28;20028;-53
2023/10/01 12:47:15;;;;;;;14.10;5.35;;;24.50;99.90;;;;;;5060447;28;20396;-53
2023/10/01 12:49:42;;;;;;;9.65;3.58;;;24.40;99.90;;;;;;5055027;28;20112;-52
2023/10/01 12:52:09;;;;;;;11.88;4.93;;;24.50;99.90;;;;;;5054763;28;20110;-53
2023/10/01 12:54:37;;;;;;;13.45;5.32;;;24.60;99.90;;;;;;5055286;28;20040;-51
2023/10/01 12:57:09;;;;;;;10.75;4.35;;;24.60;99.90;;;;;;5062486;28;20477;-54
2023/10/01 12:59:40;;;;;;;10.65;4.68;;;24.50;99.90;;;;;;5075155;28;20074;-52
2023/10/01 13:02:28;;;;;;;16.27;5.80;;;24.40;99.90;;;;;;5074909;28;20040;-53
2023/10/01 13:05:19;;;;;;;12.60;4.68;;;24.40;99.90;;;;;;5074708;28;20031;-56
2023/10/01 13:07:47;;;;;;;13.40;4.80;;;24.30;99.90;;;;;;5074267;28;20033;-52
2023/10/01 13:10:14;;;;;;;12.68;5.07;;;24.40;99.90;;;;;;5074601;28;20029;-50
2023/10/01 13:12:55;;;;;;;14.75;4.70;;;24.40;99.90;;;;;;5074390;28;20043;-52
2023/10/01 13:15:29;;;;;;;9.27;4.30;;;24.40;99.90;;;;;;5073529;28;20107;-51
2023/10/01 13:18:00;;;;;;;12.63;5.18;;;24.40;99.90;;;;;;5074564;28;20017;-53
2023/10/01 13:20:28;;;;;;;14.63;4.38;;;24.40;99.90;;;;;;5074498;28;20074;-53
2023/10/01 13:23:06;;;;;;;16.45;6.22;;;24.50;99.90;;;;;;5074691;28;20374;-53
2023/10/01 13:25:34;;;;;;;13.15;5.13;;;24.70;99.90;;;;;;5055378;28;20031;-55
2023/10/01 13:28:06;;;;;;;15.77;5.00;;;24.90;99.90;;;;;;5053019;28;20397;-52
2023/10/01 13:33:19;;;;;;;13.02;4.60;;;25.10;99.90;;;;;;5074440;28;20032;-53
2023/10/01 13:35:58;;;;;;;13.75;5.55;;;25.20;99.90;;;;;;5074078;28;20052;-52
2023/10/01 14:11:02;;;;;;;11.63;4.93;;;25.30;99.90;;;;;;5073322;28;20035;-54
2023/10/01 14:13:35;;;;;;;15.63;4.80;;;25.40;99.90;;;;;;5073404;28;20438;-53
2023/10/01 14:16:11;;;;;;;12.10;4.88;;;25.40;99.90;;;;;;5073711;28;20028;-52
2023/10/01 14:18:40;;;;;;;16.85;5.78;;;25.40;99.90;;;;;;5073213;28;20028;-52
2023/10/01 14:21:15;;;;;;;15.63;4.78;;;25.50;99.90;;;;;;5072303;28;20025;-52
2023/10/01 14:23:42;;;;;;;15.15;4.90;;;25.50;99.90;;;;;;5069972;28;20421;-53
2023/10/01 14:26:20;;;;;;;15.00;4.80;;;25.50;99.90;;;;;;5053132;28;20025;-52
2023/10/01 14:28:47;;;;;;;12.35;5.22;;;25.40;99.90;;;;;;5051936;28;20036;-51